Goodyears Corners, New York
Current Conditions -  °F | °C
As of 6:56 PM on Monday 20 Oct 2014 (Local Time) from KITH Reporting Station
Broken Clouds Broken Clouds  
Wind Chill: 51°   Ceiling: 12000
Heat Index: 51°   Visibility: 10mi
Dew Point: 38°   Wind: 8mph
Humidity: 61%   Direction: 160°SSE
Pressure: 29.89"   Gusts: NA
Location:  42.6734°N, 76.6263°W
Report Text: KITH 202256Z 16007KT 10SM FEW080 BKN120 11/03 A2989 RMK AO2 T01050033 SLP129
Loading
Personal Weather Stations






























Interactive Weather Map
Tropical Storm Tracking
New forecast layout! Learn more

10-Day Weather Forecast

Advertisements
Track Severe Weather on mobile